Time;durP1;ratioP1;P1;durP2;ratioP2;P2;SDS_P1;SDS_P2;PMS_P1;PMS_P2;Temp;Humidity;BMP_temperature;BMP_pressure;BME280_temperature;BME280_humidity;BME280_pressure;Samples;Min_cycle;Max_cycle;Signal;HPM_P1;HPM_P2
2023/07/30 00:01:47;;;;;;;;;2.00;1.33;;;;;;;;5006401;28;51372;-61
2023/07/30 00:04:12;;;;;;;;;2.00;2.00;;;;;;;;5005688;28;51104;-60
2023/07/30 00:06:37;;;;;;;;;2.00;2.00;;;;;;;;4997620;28;51027;-62
2023/07/30 00:09:03;;;;;;;;;1.00;1.00;;;;;;;;5006429;28;50932;-62
2023/07/30 00:11:29;;;;;;;;;2.00;1.67;;;;;;;;4996006;28;51121;-61
2023/07/30 00:13:54;;;;;;;;;1.00;1.00;;;;;;;;4995788;28;51253;-59
2023/07/30 00:16:19;;;;;;;;;1.67;0.67;;;;;;;;4996081;28;51049;-61
2023/07/30 00:18:44;;;;;;;;;2.00;1.00;;;;;;;;5009225;28;50963;-59
2023/07/30 00:21:09;;;;;;;;;2.00;1.33;;;;;;;;5012819;28;51815;-58
2023/07/30 00:23:35;;;;;;;;;1.67;1.67;;;;;;;;5015669;28;51779;-61
2023/07/30 00:26:00;;;;;;;;;1.00;1.00;;;;;;;;5015644;28;50872;-61
2023/07/30 00:28:25;;;;;;;;;2.00;2.00;;;;;;;;5007563;28;51060;-59
2023/07/30 00:30:50;;;;;;;;;1.67;1.67;;;;;;;;4996105;28;50841;-60
2023/07/30 00:33:15;;;;;;;;;1.33;1.33;;;;;;;;4995638;28;50848;-60
2023/07/30 00:35:40;;;;;;;;;1.00;1.00;;;;;;;;5010653;28;51017;-61
2023/07/30 00:38:06;;;;;;;;;2.00;2.00;;;;;;;;5015886;28;51101;-62
2023/07/30 00:40:31;;;;;;;;;1.00;1.00;;;;;;;;5015761;28;50817;-61
2023/07/30 00:42:56;;;;;;;;;2.00;2.00;;;;;;;;5015604;28;51019;-61
2023/07/30 00:45:21;;;;;;;;;2.00;1.33;;;;;;;;5011712;28;50891;-61
2023/07/30 00:47:47;;;;;;;;;1.00;1.00;;;;;;;;5005726;28;51128;-61
2023/07/30 00:50:14;;;;;;;;;2.67;2.00;;;;;;;;5011317;28;52085;-61
2023/07/30 00:52:40;;;;;;;;;2.00;2.00;;;;;;;;5008199;28;52114;-61
2023/07/30 00:55:06;;;;;;;;;2.33;2.00;;;;;;;;5011354;28;51139;-61
2023/07/30 00:57:32;;;;;;;;;1.00;1.00;;;;;;;;4995539;28;51031;-62
2023/07/30 00:59:57;;;;;;;;;2.67;2.00;;;;;;;;4995457;28;51137;-62
2023/07/30 01:02:22;;;;;;;;;2.00;2.00;;;;;;;;4993822;28;53838;-61
2023/07/30 01:04:48;;;;;;;;;1.00;1.00;;;;;;;;4993553;28;51029;-62
2023/07/30 01:07:13;;;;;;;;;2.00;2.00;;;;;;;;5001612;28;50979;-61
2023/07/30 01:09:38;;;;;;;;;2.00;2.00;;;;;;;;5007626;28;51100;-61
2023/07/30 01:12:04;;;;;;;;;1.00;1.00;;;;;;;;4995003;28;50986;-60
2023/07/30 01:14:30;;;;;;;;;1.67;1.67;;;;;;;;4995004;28;50932;-61
2023/07/30 01:16:55;;;;;;;;;2.00;2.00;;;;;;;;4994571;28;50957;-61
2023/07/30 01:19:21;;;;;;;;;1.00;1.00;;;;;;;;4994607;28;50979;-60
2023/07/30 01:21:46;;;;;;;;;2.00;1.33;;;;;;;;4995031;28;50833;-61
2023/07/30 01:24:11;;;;;;;;;1.00;1.00;;;;;;;;4994884;28;50929;-60
2023/07/30 01:26:44;;;;;;;;;1.00;1.00;;;;;;;;5007754;28;50910;-61
2023/07/30 01:29:16;;;;;;;;;4.00;4.00;;;;;;;;5015091;28;50939;-61
2023/07/30 01:31:42;;;;;;;;;2.33;2.33;;;;;;;;5006220;28;52948;-61
2023/07/30 01:34:09;;;;;;;;;2.00;1.67;;;;;;;;5011297;28;51193;-60
2023/07/30 01:36:35;;;;;;;;;4.33;3.67;;;;;;;;5009468;28;51113;-61
2023/07/30 01:39:01;;;;;;;;;0.67;0.67;;;;;;;;5008006;28;51265;-60
2023/07/30 01:41:26;;;;;;;;;2.00;1.67;;;;;;;;5016232;28;51099;-59
2023/07/30 01:43:51;;;;;;;;;2.33;2.00;;;;;;;;5014372;28;50989;-60
2023/07/30 01:46:17;;;;;;;;;2.00;2.00;;;;;;;;5004263;28;51135;-60
2023/07/30 01:48:42;;;;;;;;;1.00;1.00;;;;;;;;4997944;28;51054;-60
2023/07/30 01:51:07;;;;;;;;;2.00;1.00;;;;;;;;5004345;28;50993;-60
2023/07/30 01:53:32;;;;;;;;;2.00;2.00;;;;;;;;4994723;28;50975;-61
2023/07/30 01:55:58;;;;;;;;;2.00;1.00;;;;;;;;4997699;28;51067;-61
2023/07/30 01:58:23;;;;;;;;;2.00;1.33;;;;;;;;5014845;28;51162;-61
2023/07/30 02:00:48;;;;;;;;;1.67;1.67;;;;;;;;5011008;28;51712;-59
2023/07/30 02:03:13;;;;;;;;;3.00;3.00;;;;;;;;4994810;28;50951;-60
2023/07/30 02:05:38;;;;;;;;;2.00;2.00;;;;;;;;4994216;28;51277;-60
2023/07/30 02:08:03;;;;;;;;;2.33;1.33;;;;;;;;4997557;28;51154;-60
2023/07/30 02:10:29;;;;;;;;;2.67;2.00;;;;;;;;4995130;28;52725;-60
2023/07/30 02:12:54;;;;;;;;;3.00;2.00;;;;;;;;4994430;28;51008;-60
2023/07/30 02:15:19;;;;;;;;;2.00;2.00;;;;;;;;4994777;28;51212;-61
2023/07/30 02:17:44;;;;;;;;;2.00;1.00;;;;;;;;5007013;28;51227;-61
2023/07/30 02:20:09;;;;;;;;;4.00;4.00;;;;;;;;4996009;28;51249;-60
2023/07/30 02:22:35;;;;;;;;;3.00;3.00;;;;;;;;5010911;28;51085;-61
2023/07/30 02:25:00;;;;;;;;;2.00;2.00;;;;;;;;4996832;28;51184;-60
2023/07/30 02:27:25;;;;;;;;;2.00;2.00;;;;;;;;5010281;28;51104;-60
2023/07/30 02:29:50;;;;;;;;;2.00;1.67;;;;;;;;5008648;28;51175;-60
2023/07/30 02:32:16;;;;;;;;;1.00;1.00;;;;;;;;4999069;28;51350;-60
2023/07/30 02:34:41;;;;;;;;;1.00;1.00;;;;;;;;5004083;28;51231;-60
2023/07/30 02:37:06;;;;;;;;;1.00;1.00;;;;;;;;5001978;28;51127;-60
2023/07/30 02:39:31;;;;;;;;;1.67;0.67;;;;;;;;5005325;28;54006;-60
2023/07/30 02:41:56;;;;;;;;;1.00;0.67;;;;;;;;5008551;28;51048;-60
2023/07/30 02:44:21;;;;;;;;;0.00;0.00;;;;;;;;5007364;28;52604;-60
2023/07/30 02:46:47;;;;;;;;;0.67;0.67;;;;;;;;5000521;28;51148;-60
2023/07/30 02:49:12;;;;;;;;;3.00;1.67;;;;;;;;5012630;28;51973;-60
2023/07/30 02:51:37;;;;;;;;;3.00;2.00;;;;;;;;5004379;28;51058;-60
2023/07/30 02:54:07;;;;;;;;;2.00;1.33;;;;;;;;5007266;28;51770;-60
2023/07/30 02:56:32;;;;;;;;;0.67;0.67;;;;;;;;5022068;28;50812;-60
2023/07/30 02:58:58;;;;;;;;;0.67;0.67;;;;;;;;5013106;28;51833;-60
2023/07/30 03:01:23;;;;;;;;;0.67;0.67;;;;;;;;5002273;28;50832;-61
2023/07/30 03:03:49;;;;;;;;;1.33;1.33;;;;;;;;5007665;28;51083;-60
2023/07/30 03:06:16;;;;;;;;;2.00;2.00;;;;;;;;5000669;28;51325;-59
2023/07/30 03:08:41;;;;;;;;;0.33;0.00;;;;;;;;5010411;28;51095;-60
2023/07/30 03:11:06;;;;;;;;;4.33;2.33;;;;;;;;5013007;28;51011;-59
2023/07/30 03:13:32;;;;;;;;;1.00;1.00;;;;;;;;5012873;28;51097;-59
2023/07/30 03:15:57;;;;;;;;;1.67;1.67;;;;;;;;5016511;28;51372;-59
2023/07/30 03:18:22;;;;;;;;;1.00;1.00;;;;;;;;5007568;28;51057;-59
2023/07/30 03:20:47;;;;;;;;;1.67;0.67;;;;;;;;5013265;28;51016;-60
2023/07/30 03:23:12;;;;;;;;;1.00;1.00;;;;;;;;5009881;28;50972;-60
2023/07/30 03:25:38;;;;;;;;;2.00;1.00;;;;;;;;4999968;28;51083;-60
2023/07/30 03:28:03;;;;;;;;;0.67;0.67;;;;;;;;5001253;28;51794;-60
2023/07/30 03:30:28;;;;;;;;;1.33;1.33;;;;;;;;5002171;28;51066;-60
2023/07/30 03:32:53;;;;;;;;;1.00;1.00;;;;;;;;5000874;28;51383;-61
2023/07/30 03:35:18;;;;;;;;;2.00;1.67;;;;;;;;5012353;28;51059;-61
2023/07/30 03:37:44;;;;;;;;;2.00;1.67;;;;;;;;5011593;28;53418;-61
2023/07/30 03:40:09;;;;;;;;;1.33;0.67;;;;;;;;5011275;28;51080;-61
2023/07/30 03:42:34;;;;;;;;;3.00;2.00;;;;;;;;5006355;28;51057;-60
2023/07/30 03:44:59;;;;;;;;;3.00;2.00;;;;;;;;4998973;28;50866;-61
2023/07/30 03:47:26;;;;;;;;;0.67;0.67;;;;;;;;4997077;28;53203;-62
2023/07/30 03:49:51;;;;;;;;;0.67;0.67;;;;;;;;4999035;28;50932;-59
2023/07/30 03:52:17;;;;;;;;;3.00;1.67;;;;;;;;4993405;28;50830;-59
2023/07/30 03:54:42;;;;;;;;;1.67;1.33;;;;;;;;4993162;28;50933;-59
2023/07/30 03:57:07;;;;;;;;;3.67;1.67;;;;;;;;4992976;28;51760;-59
2023/07/30 03:59:32;;;;;;;;;3.00;2.00;;;;;;;;5003513;28;51019;-60
2023/07/30 04:01:58;;;;;;;;;1.67;1.67;;;;;;;;4993300;28;50991;-60
2023/07/30 04:04:24;;;;;;;;;2.00;1.33;;;;;;;;4992933;28;51314;-61
2023/07/30 04:06:49;;;;;;;;;1.67;1.33;;;;;;;;4999391;28;51995;-60
2023/07/30 04:09:14;;;;;;;;;2.00;1.67;;;;;;;;5012405;28;51085;-60
2023/07/30 04:11:39;;;;;;;;;1.67;1.67;;;;;;;;4993095;28;51107;-60
2023/07/30 04:14:07;;;;;;;;;2.67;2.00;;;;;;;;4992723;28;51156;-60
2023/07/30 04:16:32;;;;;;;;;2.00;2.00;;;;;;;;5004470;28;51853;-59
2023/07/30 04:18:58;;;;;;;;;2.00;2.00;;;;;;;;5012247;28;51221;-59
2023/07/30 04:21:23;;;;;;;;;2.00;2.00;;;;;;;;5010938;28;51408;-60
2023/07/30 04:23:48;;;;;;;;;3.00;1.33;;;;;;;;5010696;28;51089;-60
2023/07/30 04:26:13;;;;;;;;;1.67;1.67;;;;;;;;4992821;28;52860;-60
2023/07/30 04:28:38;;;;;;;;;2.00;1.67;;;;;;;;4992487;28;51018;-60
2023/07/30 04:31:04;;;;;;;;;1.33;1.00;;;;;;;;5011909;28;51046;-60
2023/07/30 04:33:29;;;;;;;;;0.67;0.67;;;;;;;;5011968;28;51222;-60
2023/07/30 04:35:54;;;;;;;;;3.33;2.00;;;;;;;;5015581;28;51801;-60
2023/07/30 04:38:19;;;;;;;;;2.00;0.67;;;;;;;;5018282;28;51130;-60
2023/07/30 04:40:44;;;;;;;;;2.00;1.00;;;;;;;;5012592;28;50829;-60
2023/07/30 04:43:10;;;;;;;;;3.00;2.67;;;;;;;;5006994;28;51403;-60
2023/07/30 04:45:35;;;;;;;;;2.33;1.67;;;;;;;;4995752;28;52843;-60
2023/07/30 04:48:00;;;;;;;;;3.67;0.67;;;;;;;;4996870;28;50874;-60
2023/07/30 04:50:26;;;;;;;;;1.33;1.33;;;;;;;;5001021;28;50900;-58
2023/07/30 04:52:51;;;;;;;;;2.00;1.33;;;;;;;;5000602;28;50866;-60
2023/07/30 04:55:16;;;;;;;;;1.33;1.33;;;;;;;;5008800;28;51962;-60
2023/07/30 04:57:42;;;;;;;;;2.00;1.67;;;;;;;;5009399;28;51082;-60
2023/07/30 05:00:07;;;;;;;;;1.67;1.67;;;;;;;;5014397;28;51250;-60
2023/07/30 05:02:32;;;;;;;;;1.67;1.67;;;;;;;;5018978;28;51093;-60
2023/07/30 05:04:57;;;;;;;;;1.33;1.33;;;;;;;;5020969;28;52653;-60
2023/07/30 05:07:23;;;;;;;;;2.67;1.67;;;;;;;;5015166;28;51104;-60
2023/07/30 05:09:48;;;;;;;;;2.33;1.33;;;;;;;;5002231;28;51336;-60
2023/07/30 05:12:13;;;;;;;;;1.67;1.67;;;;;;;;4995652;28;51137;-60
2023/07/30 05:14:39;;;;;;;;;2.67;1.67;;;;;;;;4994957;28;51879;-60
2023/07/30 05:17:04;;;;;;;;;1.33;1.00;;;;;;;;4995154;28;51032;-60
2023/07/30 05:19:29;;;;;;;;;1.33;0.67;;;;;;;;4994954;28;51246;-60
2023/07/30 05:21:55;;;;;;;;;1.67;1.67;;;;;;;;4995853;28;51160;-60
2023/07/30 05:24:20;;;;;;;;;1.00;1.00;;;;;;;;5005487;28;52157;-59
2023/07/30 05:26:45;;;;;;;;;1.00;1.00;;;;;;;;5015045;28;51054;-60
2023/07/30 05:29:10;;;;;;;;;1.33;1.00;;;;;;;;5015038;28;51344;-61
2023/07/30 05:31:36;;;;;;;;;1.00;0.00;;;;;;;;5015055;28;51174;-61
2023/07/30 05:34:01;;;;;;;;;2.00;2.00;;;;;;;;5005818;28;50967;-61
2023/07/30 05:36:26;;;;;;;;;2.67;1.33;;;;;;;;5009448;28;51081;-60
2023/07/30 05:38:51;;;;;;;;;1.00;1.00;;;;;;;;5014235;28;51136;-60
2023/07/30 05:41:16;;;;;;;;;3.00;2.00;;;;;;;;5008093;28;50969;-61
2023/07/30 05:43:42;;;;;;;;;1.67;1.33;;;;;;;;5014725;28;52051;-61
2023/07/30 05:46:07;;;;;;;;;1.00;1.00;;;;;;;;4995037;28;51023;-61
2023/07/30 05:48:33;;;;;;;;;3.00;2.00;;;;;;;;5003924;28;51105;-61
2023/07/30 05:50:58;;;;;;;;;1.00;1.00;;;;;;;;4995179;28;51247;-61
2023/07/30 05:53:23;;;;;;;;;1.67;1.00;;;;;;;;4994849;28;51821;-62
2023/07/30 05:55:48;;;;;;;;;3.33;2.67;;;;;;;;4994901;28;51093;-61
2023/07/30 05:58:14;;;;;;;;;2.00;1.00;;;;;;;;5004203;28;51247;-61
2023/07/30 06:00:39;;;;;;;;;2.00;1.00;;;;;;;;5008772;28;51261;-62
2023/07/30 06:03:06;;;;;;;;;2.00;1.00;;;;;;;;5011017;28;51915;-61
2023/07/30 06:05:31;;;;;;;;;2.33;1.67;;;;;;;;5013996;28;50962;-61
2023/07/30 06:07:56;;;;;;;;;2.67;1.67;;;;;;;;5013718;28;51303;-61
2023/07/30 06:10:21;;;;;;;;;2.00;1.67;;;;;;;;5010916;28;51050;-62
2023/07/30 06:12:46;;;;;;;;;1.00;1.00;;;;;;;;5014087;28;52004;-61
2023/07/30 06:15:12;;;;;;;;;3.00;1.67;;;;;;;;5010455;28;51134;-61
2023/07/30 06:17:37;;;;;;;;;2.67;2.00;;;;;;;;5010890;28;51100;-61
2023/07/30 06:20:03;;;;;;;;;2.00;1.67;;;;;;;;5007240;28;52336;-62
2023/07/30 06:22:28;;;;;;;;;1.00;1.00;;;;;;;;5012760;28;53744;-62
2023/07/30 06:24:53;;;;;;;;;1.33;1.33;;;;;;;;5010087;28;51042;-62
2023/07/30 06:27:19;;;;;;;;;1.67;1.67;;;;;;;;5013258;28;51361;-62
2023/07/30 06:29:44;;;;;;;;;3.00;1.67;;;;;;;;4994702;28;51028;-61
2023/07/30 06:32:09;;;;;;;;;1.00;1.00;;;;;;;;5005099;28;51446;-61
2023/07/30 06:34:35;;;;;;;;;2.00;2.00;;;;;;;;5001404;28;51107;-61
2023/07/30 06:37:00;;;;;;;;;2.33;2.00;;;;;;;;5014135;28;51031;-60
2023/07/30 06:39:25;;;;;;;;;3.67;3.67;;;;;;;;5014091;28;51084;-61
2023/07/30 06:41:50;;;;;;;;;2.67;1.67;;;;;;;;5014186;28;51055;-61
2023/07/30 06:44:16;;;;;;;;;0.67;0.67;;;;;;;;5014962;28;51065;-60
2023/07/30 06:46:41;;;;;;;;;1.00;1.00;;;;;;;;5009177;28;51156;-61
2023/07/30 06:49:06;;;;;;;;;0.00;0.00;;;;;;;;5009925;28;51066;-60
2023/07/30 06:51:31;;;;;;;;;2.00;1.00;;;;;;;;5000436;28;51038;-60
2023/07/30 06:53:56;;;;;;;;;2.00;2.00;;;;;;;;5003493;28;51021;-59
2023/07/30 06:56:22;;;;;;;;;1.67;1.67;;;;;;;;5013711;28;51025;-61
2023/07/30 06:58:47;;;;;;;;;1.33;1.33;;;;;;;;5013922;28;51419;-60
2023/07/30 07:01:12;;;;;;;;;2.00;2.00;;;;;;;;5000613;28;51827;-61
2023/07/30 07:03:37;;;;;;;;;2.33;2.00;;;;;;;;4994009;28;51184;-61
2023/07/30 07:06:02;;;;;;;;;1.33;1.33;;;;;;;;5006498;28;51013;-61
2023/07/30 07:08:28;;;;;;;;;1.00;1.00;;;;;;;;5024388;28;51232;-60
2023/07/30 07:10:53;;;;;;;;;2.67;2.00;;;;;;;;5013030;28;52544;-60
2023/07/30 07:13:18;;;;;;;;;1.67;1.67;;;;;;;;4994218;28;51222;-60
2023/07/30 07:15:44;;;;;;;;;1.00;1.00;;;;;;;;5007235;28;51151;-62
2023/07/30 07:18:09;;;;;;;;;1.00;1.00;;;;;;;;5013207;28;51290;-61
2023/07/30 07:20:35;;;;;;;;;2.33;2.33;;;;;;;;4993935;28;52017;-60
2023/07/30 07:23:00;;;;;;;;;2.33;2.00;;;;;;;;5009065;28;51006;-60
2023/07/30 07:25:25;;;;;;;;;3.00;2.67;;;;;;;;5010984;28;50856;-60
2023/07/30 07:27:50;;;;;;;;;3.33;1.67;;;;;;;;5007923;28;51378;-60
2023/07/30 07:30:16;;;;;;;;;2.00;2.00;;;;;;;;4993207;28;50887;-61
2023/07/30 07:32:41;;;;;;;;;3.00;2.67;;;;;;;;5004613;28;51111;-60
2023/07/30 07:35:06;;;;;;;;;2.00;2.00;;;;;;;;5004395;28;50957;-60
2023/07/30 07:37:32;;;;;;;;;2.00;2.00;;;;;;;;5014414;28;51106;-61
2023/07/30 07:39:57;;;;;;;;;3.00;2.00;;;;;;;;5013389;28;52716;-60
2023/07/30 07:42:22;;;;;;;;;2.67;1.67;;;;;;;;5015205;28;51159;-62
2023/07/30 07:44:47;;;;;;;;;3.00;2.00;;;;;;;;5012611;28;51368;-61
2023/07/30 07:47:13;;;;;;;;;2.00;2.00;;;;;;;;5012915;28;51063;-61
2023/07/30 07:49:38;;;;;;;;;2.00;2.00;;;;;;;;5012299;28;52531;-61
2023/07/30 07:52:03;;;;;;;;;3.00;3.00;;;;;;;;5012727;28;51006;-61
2023/07/30 07:54:28;;;;;;;;;1.67;1.67;;;;;;;;5011380;28;51239;-62
2023/07/30 07:56:54;;;;;;;;;3.00;3.00;;;;;;;;5012863;28;50945;-60
2023/07/30 07:59:19;;;;;;;;;3.00;2.67;;;;;;;;5011222;28;52646;-61
2023/07/30 08:01:44;;;;;;;;;2.00;2.00;;;;;;;;5012528;28;51041;-61
2023/07/30 08:04:09;;;;;;;;;2.00;2.00;;;;;;;;5012281;28;51291;-61
2023/07/30 08:06:34;;;;;;;;;3.33;3.00;;;;;;;;5012568;28;51261;-61
2023/07/30 08:09:00;;;;;;;;;2.00;2.00;;;;;;;;5012443;28;52056;-61
2023/07/30 08:11:25;;;;;;;;;3.00;3.00;;;;;;;;4995303;28;51191;-61
2023/07/30 08:13:50;;;;;;;;;3.00;2.00;;;;;;;;5012037;28;51351;-60
2023/07/30 08:16:15;;;;;;;;;3.00;3.00;;;;;;;;4995105;28;51246;-61
2023/07/30 08:18:41;;;;;;;;;3.00;3.00;;;;;;;;4992396;28;51759;-62
2023/07/30 08:21:06;;;;;;;;;3.00;3.00;;;;;;;;4992476;28;51205;-62
2023/07/30 08:23:31;;;;;;;;;2.33;1.67;;;;;;;;4996190;28;51567;-61
2023/07/30 08:25:56;;;;;;;;;2.33;2.00;;;;;;;;5012369;28;51089;-62
2023/07/30 08:28:21;;;;;;;;;2.67;2.67;;;;;;;;5014984;28;51704;-62
2023/07/30 08:30:47;;;;;;;;;2.00;1.33;;;;;;;;5015623;28;51221;-62
2023/07/30 08:33:12;;;;;;;;;2.00;2.00;;;;;;;;5015721;28;51193;-62
2023/07/30 08:35:37;;;;;;;;;2.67;2.00;;;;;;;;5015484;28;51089;-62
2023/07/30 08:38:02;;;;;;;;;3.33;3.33;;;;;;;;5015681;28;52218;-60
2023/07/30 08:40:28;;;;;;;;;3.00;2.00;;;;;;;;5014098;28;51050;-61
2023/07/30 08:42:53;;;;;;;;;3.00;3.00;;;;;;;;5014507;28;51061;-61
2023/07/30 08:45:19;;;;;;;;;4.00;3.00;;;;;;;;5015595;28;51034;-61
2023/07/30 08:47:44;;;;;;;;;1.33;1.33;;;;;;;;5015327;28;52389;-61
2023/07/30 08:50:09;;;;;;;;;2.00;1.67;;;;;;;;5015110;28;51018;-61
2023/07/30 08:52:35;;;;;;;;;4.33;3.67;;;;;;;;5014277;28;51114;-61
2023/07/30 08:55:01;;;;;;;;;4.00;3.00;;;;;;;;5015433;28;50989;-61
2023/07/30 08:57:28;;;;;;;;;4.00;3.00;;;;;;;;5015243;28;51141;-61
2023/07/30 08:59:57;;;;;;;;;3.67;3.00;;;;;;;;5015076;28;51181;-61
2023/07/30 09:02:26;;;;;;;;;3.00;3.00;;;;;;;;5015518;28;51111;-61
2023/07/30 09:04:53;;;;;;;;;1.67;1.67;;;;;;;;5014742;28;51250;-62
2023/07/30 09:07:18;;;;;;;;;1.67;1.67;;;;;;;;5014719;28;51879;-61
2023/07/30 09:09:43;;;;;;;;;1.67;1.33;;;;;;;;5008798;28;50950;-61
2023/07/30 09:12:15;;;;;;;;;2.33;2.00;;;;;;;;4995445;28;50917;-62
2023/07/30 09:14:40;;;;;;;;;2.67;2.67;;;;;;;;5002063;28;51223;-61
2023/07/30 09:17:05;;;;;;;;;2.33;2.00;;;;;;;;5014579;28;51832;-61
2023/07/30 09:19:34;;;;;;;;;2.67;2.67;;;;;;;;5014577;28;50936;-61
2023/07/30 09:21:59;;;;;;;;;4.33;3.33;;;;;;;;5014808;28;51039;-61
2023/07/30 09:24:24;;;;;;;;;2.33;2.33;;;;;;;;5014859;28;50942;-62
2023/07/30 09:26:50;;;;;;;;;2.67;2.67;;;;;;;;5013078;28;51989;-60
2023/07/30 09:29:15;;;;;;;;;4.00;4.00;;;;;;;;5014709;28;50972;-61
2023/07/30 09:31:47;;;;;;;;;2.00;2.00;;;;;;;;5014509;28;50938;-61
2023/07/30 09:34:17;;;;;;;;;2.67;2.00;;;;;;;;5014420;28;51141;-61
2023/07/30 09:36:42;;;;;;;;;3.67;3.67;;;;;;;;5014359;28;51109;-60
2023/07/30 09:39:15;;;;;;;;;2.00;2.00;;;;;;;;5012790;28;50956;-61
2023/07/30 09:41:41;;;;;;;;;2.00;2.00;;;;;;;;5014683;28;51042;-61
2023/07/30 09:44:07;;;;;;;;;4.00;3.67;;;;;;;;5014230;28;51071;-61
2023/07/30 09:46:41;;;;;;;;;2.00;2.00;;;;;;;;5014118;28;51679;-61
2023/07/30 09:49:07;;;;;;;;;0.00;0.00;;;;;;;;5014185;28;51074;-61
2023/07/30 09:51:34;;;;;;;;;4.00;3.00;;;;;;;;5013080;28;51071;-62
2023/07/30 09:53:59;;;;;;;;;2.33;2.33;;;;;;;;5013019;28;51166;-62
2023/07/30 09:56:24;;;;;;;;;3.00;2.67;;;;;;;;5013916;28;51773;-62
2023/07/30 09:58:49;;;;;;;;;3.00;2.33;;;;;;;;5014297;28;50966;-62
2023/07/30 10:01:15;;;;;;;;;2.00;2.00;;;;;;;;5014464;28;51304;-62
2023/07/30 10:03:40;;;;;;;;;3.00;3.00;;;;;;;;5014250;28;50960;-62
2023/07/30 10:06:07;;;;;;;;;3.00;3.00;;;;;;;;5012649;28;52892;-62
2023/07/30 10:08:35;;;;;;;;;3.00;3.00;;;;;;;;5012807;28;51001;-62
2023/07/30 10:11:03;;;;;;;;;2.67;2.00;;;;;;;;5001558;28;51087;-62
2023/07/30 10:13:29;;;;;;;;;2.33;2.00;;;;;;;;5012191;28;50932;-61
2023/07/30 10:15:54;;;;;;;;;4.00;4.00;;;;;;;;5006647;28;51914;-60
2023/07/30 10:18:21;;;;;;;;;3.00;2.33;;;;;;;;4993836;28;51117;-61
2023/07/30 10:20:53;;;;;;;;;3.00;2.33;;;;;;;;4998484;28;50990;-61
2023/07/30 10:23:18;;;;;;;;;2.67;2.00;;;;;;;;5013644;28;51265;-61
2023/07/30 10:25:44;;;;;;;;;2.33;2.33;;;;;;;;5013639;28;51104;-61
2023/07/30 10:28:25;;;;;;;;;3.33;3.33;;;;;;;;5013613;28;51187;-62
2023/07/30 10:30:57;;;;;;;;;4.00;3.00;;;;;;;;5012646;28;51116;-61
2023/07/30 10:33:23;;;;;;;;;4.00;2.67;;;;;;;;5013325;28;51295;-61
2023/07/30 10:35:53;;;;;;;;;2.00;2.00;;;;;;;;5013048;28;51963;-62
2023/07/30 10:38:27;;;;;;;;;3.00;3.00;;;;;;;;5013367;28;51073;-62
2023/07/30 10:41:02;;;;;;;;;5.00;5.00;;;;;;;;5013303;28;51079;-62
2023/07/30 10:43:29;;;;;;;;;3.00;3.00;;;;;;;;5013581;28;51097;-61
2023/07/30 10:45:54;;;;;;;;;3.00;3.00;;;;;;;;5013017;28;53514;-61
2023/07/30 10:48:29;;;;;;;;;2.00;2.00;;;;;;;;5013087;28;51076;-62
2023/07/30 10:51:03;;;;;;;;;2.33;2.33;;;;;;;;5012950;28;51066;-62
2023/07/30 10:53:28;;;;;;;;;1.00;1.00;;;;;;;;5012221;28;50979;-61
2023/07/30 10:55:55;;;;;;;;;2.00;2.00;;;;;;;;5012477;28;52057;-63
2023/07/30 10:58:22;;;;;;;;;3.00;2.00;;;;;;;;5013105;28;51079;-62
2023/07/30 11:00:48;;;;;;;;;3.00;3.00;;;;;;;;5011923;28;51002;-61
2023/07/30 11:03:13;;;;;;;;;1.33;1.33;;;;;;;;5013010;28;51203;-61
2023/07/30 11:05:38;;;;;;;;;1.67;1.67;;;;;;;;5012650;28;52121;-61
2023/07/30 11:08:06;;;;;;;;;1.33;1.33;;;;;;;;5012796;28;50898;-61
2023/07/30 11:10:31;;;;;;;;;2.00;2.00;;;;;;;;5003327;28;50977;-61
2023/07/30 11:12:57;;;;;;;;;1.33;1.00;;;;;;;;5012849;28;51417;-62
2023/07/30 11:15:22;;;;;;;;;1.00;1.00;;;;;;;;5012631;28;52027;-62
2023/07/30 11:17:49;;;;;;;;;2.67;2.67;;;;;;;;5012313;28;51002;-62
2023/07/30 11:20:26;;;;;;;;;1.00;1.00;;;;;;;;5012606;28;51089;-61
2023/07/30 11:22:51;;;;;;;;;2.33;2.33;;;;;;;;5012711;28;51290;-62
2023/07/30 11:25:17;;;;;;;;;4.67;4.33;;;;;;;;5012477;28;51203;-62
2023/07/30 11:27:46;;;;;;;;;2.00;2.00;;;;;;;;5011220;28;51062;-62
2023/07/30 11:30:11;;;;;;;;;1.00;1.00;;;;;;;;5012783;28;51003;-62
2023/07/30 11:32:36;;;;;;;;;1.33;1.33;;;;;;;;5012567;28;50961;-61
2023/07/30 11:35:02;;;;;;;;;2.00;1.00;;;;;;;;5012143;28;51697;-61
2023/07/30 11:37:27;;;;;;;;;5.67;5.67;;;;;;;;5012420;28;51138;-62
2023/07/30 11:39:52;;;;;;;;;3.00;3.00;;;;;;;;5010059;28;51054;-61
2023/07/30 11:42:18;;;;;;;;;0.33;0.33;;;;;;;;5010240;28;51164;-61
2023/07/30 11:44:43;;;;;;;;;1.67;1.67;;;;;;;;5011077;28;51059;-61
2023/07/30 11:47:11;;;;;;;;;1.00;1.00;;;;;;;;5012073;28;50962;-62
2023/07/30 11:49:37;;;;;;;;;2.00;2.00;;;;;;;;5012040;28;51170;-61
2023/07/30 11:52:06;;;;;;;;;1.67;1.67;;;;;;;;5010661;28;50822;-61
2023/07/30 11:54:32;;;;;;;;;1.67;1.67;;;;;;;;5011962;28;52106;-60
2023/07/30 11:56:58;;;;;;;;;0.67;0.67;;;;;;;;5011818;28;51171;-61
2023/07/30 11:59:23;;;;;;;;;2.33;2.33;;;;;;;;5012090;28;50925;-61
2023/07/30 12:01:48;;;;;;;;;3.00;2.00;;;;;;;;5011087;28;51030;-61
2023/07/30 12:04:13;;;;;;;;;1.67;1.67;;;;;;;;5011531;28;52324;-60
2023/07/30 12:06:39;;;;;;;;;4.67;3.33;;;;;;;;5012133;28;51190;-62
2023/07/30 12:09:14;;;;;;;;;3.33;2.00;;;;;;;;5011763;28;50950;-61
2023/07/30 12:11:47;;;;;;;;;3.00;3.00;;;;;;;;5012063;28;51430;-62
2023/07/30 12:14:12;;;;;;;;;4.00;2.67;;;;;;;;5007743;28;52084;-61
2023/07/30 12:16:38;;;;;;;;;5.00;3.33;;;;;;;;5010219;28;51120;-61
2023/07/30 12:19:03;;;;;;;;;3.00;3.00;;;;;;;;5011467;28;51143;-62
2023/07/30 12:21:29;;;;;;;;;1.67;1.67;;;;;;;;5011792;28;51077;-62
2023/07/30 12:23:54;;;;;;;;;3.00;3.00;;;;;;;;5011675;28;50979;-63
2023/07/30 12:26:20;;;;;;;;;2.00;2.00;;;;;;;;5011708;28;51011;-62
2023/07/30 12:28:45;;;;;;;;;4.00;3.67;;;;;;;;5011833;28;51144;-62
2023/07/30 12:31:10;;;;;;;;;3.67;3.67;;;;;;;;5012240;28;51067;-62
2023/07/30 12:33:35;;;;;;;;;2.67;2.00;;;;;;;;5011040;28;52174;-62
2023/07/30 12:36:01;;;;;;;;;3.00;3.00;;;;;;;;5011583;28;50938;-62
2023/07/30 12:38:26;;;;;;;;;2.00;2.00;;;;;;;;5010419;28;51035;-61
2023/07/30 12:40:51;;;;;;;;;2.00;2.00;;;;;;;;5011881;28;51273;-61
2023/07/30 12:43:18;;;;;;;;;4.00;4.00;;;;;;;;5011362;28;50949;-61
2023/07/30 12:45:44;;;;;;;;;2.00;2.00;;;;;;;;5001692;28;50912;-63
2023/07/30 12:48:09;;;;;;;;;3.00;2.00;;;;;;;;4989808;28;50956;-62
2023/07/30 12:50:37;;;;;;;;;3.33;3.33;;;;;;;;4992142;28;50922;-63
2023/07/30 12:53:02;;;;;;;;;1.33;1.00;;;;;;;;4989964;28;54145;-61
2023/07/30 12:55:28;;;;;;;;;2.00;2.00;;;;;;;;4991466;28;51035;-62
2023/07/30 12:57:53;;;;;;;;;3.00;3.00;;;;;;;;4991502;28;51031;-60
2023/07/30 13:00:18;;;;;;;;;1.67;1.67;;;;;;;;4990064;28;51289;-60
2023/07/30 13:02:43;;;;;;;;;7.00;7.00;;;;;;;;4990879;28;51154;-61
2023/07/30 13:05:09;;;;;;;;;4.00;4.00;;;;;;;;4991829;28;51088;-61
2023/07/30 13:07:34;;;;;;;;;4.00;3.00;;;;;;;;4991376;28;50948;-62
2023/07/30 13:10:04;;;;;;;;;2.67;2.67;;;;;;;;4998973;28;51217;-61
2023/07/30 13:12:30;;;;;;;;;2.33;2.00;;;;;;;;4991314;28;51597;-61
2023/07/30 13:14:55;;;;;;;;;2.00;1.33;;;;;;;;4994398;28;50976;-61
2023/07/30 13:17:20;;;;;;;;;4.00;4.00;;;;;;;;5005165;28;51289;-63
2023/07/30 13:19:45;;;;;;;;;4.00;4.00;;;;;;;;5014229;28;51032;-62
2023/07/30 13:22:10;;;;;;;;;5.00;4.00;;;;;;;;4997089;28;51079;-62
2023/07/30 13:24:36;;;;;;;;;2.00;2.00;;;;;;;;4994464;28;51117;-62
2023/07/30 13:27:01;;;;;;;;;4.00;3.33;;;;;;;;4994323;28;51035;-62
2023/07/30 13:29:26;;;;;;;;;5.33;5.33;;;;;;;;4994814;28;50883;-62
2023/07/30 13:31:52;;;;;;;;;3.33;3.33;;;;;;;;4993993;28;52173;-61
2023/07/30 13:34:17;;;;;;;;;2.67;2.00;;;;;;;;4994225;28;50932;-61
2023/07/30 13:36:42;;;;;;;;;3.00;3.00;;;;;;;;4994197;28;50937;-61
2023/07/30 13:39:07;;;;;;;;;3.67;3.67;;;;;;;;4994525;28;51116;-62
2023/07/30 13:41:32;;;;;;;;;7.00;6.33;;;;;;;;5009147;28;51173;-63
2023/07/30 13:43:58;;;;;;;;;3.67;3.33;;;;;;;;5013953;28;51125;-62
2023/07/30 13:46:23;;;;;;;;;3.33;2.67;;;;;;;;5014182;28;50967;-61
2023/07/30 13:48:48;;;;;;;;;5.00;4.00;;;;;;;;5013726;28;51303;-62
2023/07/30 13:51:14;;;;;;;;;3.00;3.00;;;;;;;;5013464;28;51523;-61
2023/07/30 13:53:41;;;;;;;;;4.00;3.33;;;;;;;;5013789;28;50999;-61
2023/07/30 13:56:06;;;;;;;;;4.67;4.67;;;;;;;;5013506;28;50941;-61
2023/07/30 13:58:31;;;;;;;;;3.00;2.00;;;;;;;;5013751;28;51273;-61
2023/07/30 14:00:57;;;;;;;;;3.33;3.33;;;;;;;;5013557;28;52216;-61
2023/07/30 14:03:22;;;;;;;;;3.00;3.00;;;;;;;;5013391;28;51037;-62
2023/07/30 14:05:47;;;;;;;;;5.00;4.00;;;;;;;;5013863;28;50920;-62
2023/07/30 14:08:13;;;;;;;;;4.00;3.67;;;;;;;;5013982;28;50876;-61
2023/07/30 14:10:38;;;;;;;;;4.00;4.00;;;;;;;;4998781;28;52024;-61
2023/07/30 14:13:03;;;;;;;;;3.33;3.00;;;;;;;;4992245;28;51044;-61
2023/07/30 14:15:28;;;;;;;;;3.33;3.33;;;;;;;;5000972;28;51174;-61
2023/07/30 14:17:54;;;;;;;;;4.33;4.00;;;;;;;;5006560;28;51206;-60
2023/07/30 14:20:20;;;;;;;;;6.00;5.00;;;;;;;;4993206;28;51716;-61
2023/07/30 14:22:45;;;;;;;;;5.33;4.67;;;;;;;;4991878;28;50958;-63
2023/07/30 14:25:10;;;;;;;;;5.00;4.00;;;;;;;;4992723;28;51071;-62
2023/07/30 14:27:36;;;;;;;;;3.00;3.00;;;;;;;;4993637;28;51137;-62
2023/07/30 14:30:01;;;;;;;;;3.67;3.00;;;;;;;;4993320;28;51583;-61
2023/07/30 14:32:26;;;;;;;;;5.00;3.00;;;;;;;;4993268;28;51059;-60
2023/07/30 14:34:51;;;;;;;;;6.67;5.00;;;;;;;;4993216;28;51071;-62